sensor_id;sensor_type;location;lat;lon;timestamp;pressure;altitude;pressure_sealevel;temperature;humidity
76074;BME280;64776;42.636;24.358;2022-12-11T00:00:17;88447.34;;;9.66;86.81
76074;BME280;64776;42.636;24.358;2022-12-11T00:03:18;88420.84;;;9.73;86.47
76074;BME280;64776;42.636;24.358;2022-12-11T00:06:21;88444.50;;;9.77;86.43
76074;BME280;64776;42.636;24.358;2022-12-11T00:09:24;88419.53;;;9.80;86.74
76074;BME280;64776;42.636;24.358;2022-12-11T00:12:24;88414.31;;;9.88;85.88
76074;BME280;64776;42.636;24.358;2022-12-11T00:15:26;88406.75;;;9.78;86.91
76074;BME280;64776;42.636;24.358;2022-12-11T00:18:27;88417.09;;;9.82;86.36
76074;BME280;64776;42.636;24.358;2022-12-11T00:21:28;88431.34;;;9.84;86.62
76074;BME280;64776;42.636;24.358;2022-12-11T00:24:30;88422.09;;;9.85;87.23
76074;BME280;64776;42.636;24.358;2022-12-11T00:27:31;88428.78;;;9.92;86.10
76074;BME280;64776;42.636;24.358;2022-12-11T00:30:32;88435.22;;;9.83;86.63
76074;BME280;64776;42.636;24.358;2022-12-11T00:33:33;88420.69;;;9.84;86.79
76074;BME280;64776;42.636;24.358;2022-12-11T00:36:34;88409.59;;;9.80;87.22
76074;BME280;64776;42.636;24.358;2022-12-11T00:39:37;88391.03;;;9.75;87.89
76074;BME280;64776;42.636;24.358;2022-12-11T00:42:38;88397.59;;;9.74;88.52
76074;BME280;64776;42.636;24.358;2022-12-11T00:45:40;88406.75;;;9.78;88.10
76074;BME280;64776;42.636;24.358;2022-12-11T00:48:41;88422.28;;;9.74;88.06
76074;BME280;64776;42.636;24.358;2022-12-11T00:51:42;88411.34;;;9.78;87.95
76074;BME280;64776;42.636;24.358;2022-12-11T00:54:44;88406.34;;;9.88;87.84
76074;BME280;64776;42.636;24.358;2022-12-11T00:57:46;88394.25;;;9.87;87.70
76074;BME280;64776;42.636;24.358;2022-12-11T01:00:47;88403.50;;;9.99;87.00
76074;BME280;64776;42.636;24.358;2022-12-11T01:03:48;88418.25;;;10.00;87.27
76074;BME280;64776;42.636;24.358;2022-12-11T01:06:49;88404.84;;;10.05;86.32
76074;BME280;64776;42.636;24.358;2022-12-11T01:09:51;88393.47;;;10.05;86.08
76074;BME280;64776;42.636;24.358;2022-12-11T01:12:54;88395.56;;;10.12;85.86
76074;BME280;64776;42.636;24.358;2022-12-11T01:15:55;88376.91;;;10.12;85.62
76074;BME280;64776;42.636;24.358;2022-12-11T01:18:56;88363.59;;;10.12;85.98
76074;BME280;64776;42.636;24.358;2022-12-11T01:21:57;88349.84;;;10.21;85.60
76074;BME280;64776;42.636;24.358;2022-12-11T01:24:59;88361.97;;;10.22;85.84
76074;BME280;64776;42.636;24.358;2022-12-11T01:28:00;88343.78;;;10.20;85.59
76074;BME280;64776;42.636;24.358;2022-12-11T01:31:01;88346.19;;;10.24;86.28
76074;BME280;64776;42.636;24.358;2022-12-11T01:34:02;88332.13;;;10.23;85.75
76074;BME280;64776;42.636;24.358;2022-12-11T01:37:02;88324.44;;;10.20;86.29
76074;BME280;64776;42.636;24.358;2022-12-11T01:40:06;88310.41;;;10.19;86.60
76074;BME280;64776;42.636;24.358;2022-12-11T01:43:09;88333.88;;;10.21;86.28
76074;BME280;64776;42.636;24.358;2022-12-11T01:46:10;88316.44;;;10.20;86.86
76074;BME280;64776;42.636;24.358;2022-12-11T01:49:13;88305.06;;;10.19;86.24
76074;BME280;64776;42.636;24.358;2022-12-11T01:52:17;88285.47;;;10.17;86.88
76074;BME280;64776;42.636;24.358;2022-12-11T01:55:22;88286.09;;;10.10;86.48
76074;BME280;64776;42.636;24.358;2022-12-11T01:58:26;88264.06;;;10.09;86.65
76074;BME280;64776;42.636;24.358;2022-12-11T02:01:31;88253.50;;;10.17;86.48
76074;BME280;64776;42.636;24.358;2022-12-11T02:04:34;88268.69;;;10.22;87.05
76074;BME280;64776;42.636;24.358;2022-12-11T02:07:40;88290.22;;;10.24;86.54
76074;BME280;64776;42.636;24.358;2022-12-11T02:10:48;88281.09;;;10.32;85.93
76074;BME280;64776;42.636;24.358;2022-12-11T02:13:58;88289.97;;;10.35;85.92
76074;BME280;64776;42.636;24.358;2022-12-11T02:17:05;88283.31;;;10.41;86.12
76074;BME280;64776;42.636;24.358;2022-12-11T02:20:16;88292.03;;;10.42;85.55
76074;BME280;64776;42.636;24.358;2022-12-11T02:23:41;88296.31;;;10.45;84.94
76074;BME280;64776;42.636;24.358;2022-12-11T02:27:01;88289.97;;;10.48;85.50
76074;BME280;64776;42.636;24.358;2022-12-11T02:30:07;88288.94;;;10.51;85.06
76074;BME280;64776;42.636;24.358;2022-12-11T02:33:10;88285.16;;;10.46;85.79
76074;BME280;64776;42.636;24.358;2022-12-11T02:36:15;88285.25;;;10.54;85.76
76074;BME280;64776;42.636;24.358;2022-12-11T02:39:19;88295.59;;;10.57;85.76
76074;BME280;64776;42.636;24.358;2022-12-11T02:42:23;88299.59;;;10.51;85.53
76074;BME280;64776;42.636;24.358;2022-12-11T02:45:28;88288.19;;;10.63;85.20
76074;BME280;64776;42.636;24.358;2022-12-11T02:48:31;88292.81;;;10.63;85.23
76074;BME280;64776;42.636;24.358;2022-12-11T02:51:35;88295.31;;;10.48;85.50
76074;BME280;64776;42.636;24.358;2022-12-11T02:54:36;88280.94;;;10.51;85.53
76074;BME280;64776;42.636;24.358;2022-12-11T02:57:43;88290.16;;;10.50;85.30
76074;BME280;64776;42.636;24.358;2022-12-11T03:00:45;88294.16;;;10.56;85.38
76074;BME280;64776;42.636;24.358;2022-12-11T03:03:46;88306.25;;;10.57;85.92
76074;BME280;64776;42.636;24.358;2022-12-11T03:06:52;88301.44;;;10.56;85.53
76074;BME280;64776;42.636;24.358;2022-12-11T03:09:54;88298.84;;;10.63;84.90
76074;BME280;64776;42.636;24.358;2022-12-11T03:12:57;88300.19;;;10.70;84.67
76074;BME280;64776;42.636;24.358;2022-12-11T03:16:07;88293.22;;;10.67;84.96
76074;BME280;64776;42.636;24.358;2022-12-11T03:19:15;88291.56;;;10.77;85.12
76074;BME280;64776;42.636;24.358;2022-12-11T03:22:22;88303.03;;;10.85;84.17
76074;BME280;64776;42.636;24.358;2022-12-11T03:25:29;88306.31;;;10.78;85.69
76074;BME280;64776;42.636;24.358;2022-12-11T03:28:36;88306.53;;;10.80;86.09
76074;BME280;64776;42.636;24.358;2022-12-11T03:31:44;88295.22;;;10.87;84.46
76074;BME280;64776;42.636;24.358;2022-12-11T03:34:50;88310.91;;;10.91;84.75
76074;BME280;64776;42.636;24.358;2022-12-11T03:37:55;88316.38;;;10.85;84.93
76074;BME280;64776;42.636;24.358;2022-12-11T03:41:00;88311.44;;;10.89;84.13
76074;BME280;64776;42.636;24.358;2022-12-11T03:44:02;88321.19;;;10.87;84.32
76074;BME280;64776;42.636;24.358;2022-12-11T03:47:07;88322.63;;;10.88;84.20
76074;BME280;64776;42.636;24.358;2022-12-11T03:50:10;88328.47;;;10.86;84.34
76074;BME280;64776;42.636;24.358;2022-12-11T03:53:12;88332.19;;;10.83;84.45
76074;BME280;64776;42.636;24.358;2022-12-11T03:56:14;88334.44;;;10.79;84.96
76074;BME280;64776;42.636;24.358;2022-12-11T03:59:17;88335.19;;;10.67;85.45
76074;BME280;64776;42.636;24.358;2022-12-11T04:02:19;88320.50;;;10.73;84.34
76074;BME280;64776;42.636;24.358;2022-12-11T04:05:20;88308.91;;;10.71;84.71
76074;BME280;64776;42.636;24.358;2022-12-11T04:08:21;88313.97;;;10.61;84.60
76074;BME280;64776;42.636;24.358;2022-12-11T04:11:22;88321.63;;;10.64;85.08
76074;BME280;64776;42.636;24.358;2022-12-11T04:14:23;88316.91;;;10.57;85.57
76074;BME280;64776;42.636;24.358;2022-12-11T04:17:25;88304.31;;;10.58;85.95
76074;BME280;64776;42.636;24.358;2022-12-11T04:20:26;88309.66;;;10.19;86.34
76074;BME280;64776;42.636;24.358;2022-12-11T04:23:27;88311.09;;;10.46;85.01
76074;BME280;64776;42.636;24.358;2022-12-11T04:26:28;88306.91;;;10.50;85.17
76074;BME280;64776;42.636;24.358;2022-12-11T04:29:29;88293.97;;;10.41;85.92
76074;BME280;64776;42.636;24.358;2022-12-11T04:32:31;88283.63;;;10.38;86.07
76074;BME280;64776;42.636;24.358;2022-12-11T04:35:32;88286.63;;;10.21;86.43
76074;BME280;64776;42.636;24.358;2022-12-11T04:38:33;88284.63;;;10.09;86.91
76074;BME280;64776;42.636;24.358;2022-12-11T04:41:34;88287.75;;;10.13;86.67
76074;BME280;64776;42.636;24.358;2022-12-11T04:44:35;88284.53;;;10.01;86.86
76074;BME280;64776;42.636;24.358;2022-12-11T04:47:38;88281.56;;;9.92;86.91
76074;BME280;64776;42.636;24.358;2022-12-11T04:50:40;88276.53;;;9.88;87.36
76074;BME280;64776;42.636;24.358;2022-12-11T04:53:41;88276.13;;;9.84;86.81
76074;BME280;64776;42.636;24.358;2022-12-11T04:56:42;88290.16;;;9.84;86.53
76074;BME280;64776;42.636;24.358;2022-12-11T04:59:43;88292.91;;;9.79;86.08
76074;BME280;64776;42.636;24.358;2022-12-11T05:02:45;88291.38;;;9.83;85.52
76074;BME280;64776;42.636;24.358;2022-12-11T05:05:49;88294.47;;;9.74;85.85
76074;BME280;64776;42.636;24.358;2022-12-11T05:08:51;88296.38;;;9.61;85.06
76074;BME280;64776;42.636;24.358;2022-12-11T05:11:51;88297.69;;;9.54;85.31
76074;BME280;64776;42.636;24.358;2022-12-11T05:14:53;88305.06;;;9.48;86.25
76074;BME280;64776;42.636;24.358;2022-12-11T05:17:55;88303.22;;;9.43;86.28
76074;BME280;64776;42.636;24.358;2022-12-11T05:20:57;88305.16;;;9.43;85.73
76074;BME280;64776;42.636;24.358;2022-12-11T05:23:58;88317.88;;;9.50;85.94
76074;BME280;64776;42.636;24.358;2022-12-11T05:26:59;88321.78;;;9.30;86.07
76074;BME280;64776;42.636;24.358;2022-12-11T05:29:59;88331.97;;;8.94;88.16
76074;BME280;64776;42.636;24.358;2022-12-11T05:33:02;88336.94;;;8.85;87.13
76074;BME280;64776;42.636;24.358;2022-12-11T05:36:03;88352.88;;;8.48;89.65
76074;BME280;64776;42.636;24.358;2022-12-11T05:39:04;88360.09;;;8.53;89.10
76074;BME280;64776;42.636;24.358;2022-12-11T05:42:05;88363.59;;;8.42;89.54
76074;BME280;64776;42.636;24.358;2022-12-11T05:45:06;88364.28;;;8.18;91.14
76074;BME280;64776;42.636;24.358;2022-12-11T05:48:08;88375.06;;;8.32;90.45
76074;BME280;64776;42.636;24.358;2022-12-11T05:51:09;88392.53;;;8.21;91.24
76074;BME280;64776;42.636;24.358;2022-12-11T05:54:10;88389.22;;;8.15;90.22
76074;BME280;64776;42.636;24.358;2022-12-11T05:57:11;88391.22;;;8.34;89.84
76074;BME280;64776;42.636;24.358;2022-12-11T06:00:12;88381.41;;;8.23;89.78
76074;BME280;64776;42.636;24.358;2022-12-11T06:03:14;88382.88;;;7.94;93.01
76074;BME280;64776;42.636;24.358;2022-12-11T06:06:15;88393.94;;;8.22;91.24
76074;BME280;64776;42.636;24.358;2022-12-11T06:09:16;88385.63;;;8.37;90.11
76074;BME280;64776;42.636;24.358;2022-12-11T06:12:17;88386.56;;;8.40;90.27
76074;BME280;64776;42.636;24.358;2022-12-11T06:15:17;88393.56;;;8.13;89.23
76074;BME280;64776;42.636;24.358;2022-12-11T06:18:20;88404.94;;;8.13;89.93
76074;BME280;64776;42.636;24.358;2022-12-11T06:21:23;88410.41;;;8.21;88.71
76074;BME280;64776;42.636;24.358;2022-12-11T06:24:24;88412.75;;;8.24;89.07
76074;BME280;64776;42.636;24.358;2022-12-11T06:27:24;88409.88;;;8.28;88.53
76074;BME280;64776;42.636;24.358;2022-12-11T06:30:25;88414.38;;;8.39;87.71
76074;BME280;64776;42.636;24.358;2022-12-11T06:33:28;88417.72;;;8.39;87.62
76074;BME280;64776;42.636;24.358;2022-12-11T06:36:28;88416.78;;;8.37;87.54
76074;BME280;64776;42.636;24.358;2022-12-11T06:39:29;88420.66;;;8.36;87.81
76074;BME280;64776;42.636;24.358;2022-12-11T06:42:30;88420.66;;;8.36;87.36
76074;BME280;64776;42.636;24.358;2022-12-11T06:45:31;88419.31;;;8.23;88.08
76074;BME280;64776;42.636;24.358;2022-12-11T06:48:34;88431.03;;;8.09;88.65
76074;BME280;64776;42.636;24.358;2022-12-11T06:51:35;88427.44;;;8.07;89.40
76074;BME280;64776;42.636;24.358;2022-12-11T06:54:35;88421.75;;;8.21;89.24
76074;BME280;64776;42.636;24.358;2022-12-11T06:57:36;88401.19;;;8.28;89.48
76074;BME280;64776;42.636;24.358;2022-12-11T07:00:37;88403.72;;;8.39;88.86
76074;BME280;64776;42.636;24.358;2022-12-11T07:03:39;88405.31;;;8.47;87.43
76074;BME280;64776;42.636;24.358;2022-12-11T07:06:40;88420.19;;;8.56;88.25
76074;BME280;64776;42.636;24.358;2022-12-11T07:09:41;88433.06;;;8.52;88.45
76074;BME280;64776;42.636;24.358;2022-12-11T07:12:42;88435.00;;;8.51;88.20
76074;BME280;64776;42.636;24.358;2022-12-11T07:15:42;88428.91;;;8.56;88.25
76074;BME280;64776;42.636;24.358;2022-12-11T07:18:48;88429.06;;;8.40;89.69
76074;BME280;64776;42.636;24.358;2022-12-11T07:21:49;88426.97;;;8.57;89.20
76074;BME280;64776;42.636;24.358;2022-12-11T07:24:50;88428.94;;;8.75;88.72
76074;BME280;64776;42.636;24.358;2022-12-11T07:27:51;88427.81;;;8.89;88.47
76074;BME280;64776;42.636;24.358;2022-12-11T07:30:52;88427.25;;;8.96;89.06
76074;BME280;64776;42.636;24.358;2022-12-11T07:33:55;88431.75;;;9.01;88.50
76074;BME280;64776;42.636;24.358;2022-12-11T07:36:55;88429.53;;;9.05;87.83
76074;BME280;64776;42.636;24.358;2022-12-11T07:39:56;88443.22;;;9.15;87.39
76074;BME280;64776;42.636;24.358;2022-12-11T07:42:57;88437.88;;;9.15;87.65
76074;BME280;64776;42.636;24.358;2022-12-11T07:46:00;88438.44;;;9.08;87.20
76074;BME280;64776;42.636;24.358;2022-12-11T07:49:03;88448.41;;;8.83;88.16
76074;BME280;64776;42.636;24.358;2022-12-11T07:52:04;88450.06;;;8.67;89.76
76074;BME280;64776;42.636;24.358;2022-12-11T07:55:05;88450.53;;;8.90;89.54
76074;BME280;64776;42.636;24.358;2022-12-11T07:58:06;88448.38;;;9.07;89.28
76074;BME280;64776;42.636;24.358;2022-12-11T08:01:10;88451.41;;;9.35;89.74
76074;BME280;64776;42.636;24.358;2022-12-11T08:04:12;88445.06;;;9.57;87.77
76074;BME280;64776;42.636;24.358;2022-12-11T08:07:13;88450.06;;;9.60;88.40
76074;BME280;64776;42.636;24.358;2022-12-11T08:10:14;88448.94;;;9.74;87.97
76074;BME280;64776;42.636;24.358;2022-12-11T08:13:15;88438.50;;;9.90;87.60
76074;BME280;64776;42.636;24.358;2022-12-11T08:16:16;88433.03;;;10.01;87.54
76074;BME280;64776;42.636;24.358;2022-12-11T08:19:18;88423.75;;;10.20;87.76
76074;BME280;64776;42.636;24.358;2022-12-11T08:22:19;88418.97;;;10.32;86.81
76074;BME280;64776;42.636;24.358;2022-12-11T08:25:20;88412.03;;;10.55;86.15
76074;BME280;64776;42.636;24.358;2022-12-11T08:28:21;88406.25;;;10.64;85.79
76074;BME280;64776;42.636;24.358;2022-12-11T08:31:22;88417.34;;;10.81;84.46
76074;BME280;64776;42.636;24.358;2022-12-11T08:34:25;88414.03;;;10.88;84.57
76074;BME280;64776;42.636;24.358;2022-12-11T08:37:25;88404.28;;;11.04;84.35
76074;BME280;64776;42.636;24.358;2022-12-11T08:40:26;88410.50;;;11.19;83.72
76074;BME280;64776;42.636;24.358;2022-12-11T08:43:27;88413.31;;;11.14;83.09
76074;BME280;64776;42.636;24.358;2022-12-11T08:46:30;88414.31;;;11.24;82.76
76074;BME280;64776;42.636;24.358;2022-12-11T08:49:32;88418.34;;;11.51;81.65
76074;BME280;64776;42.636;24.358;2022-12-11T08:52:33;88424.28;;;11.70;80.56
76074;BME280;64776;42.636;24.358;2022-12-11T08:55:34;88418.59;;;11.74;79.75
76074;BME280;64776;42.636;24.358;2022-12-11T08:58:35;88426.00;;;11.81;78.45
76074;BME280;64776;42.636;24.358;2022-12-11T09:01:36;88416.69;;;11.95;77.79
76074;BME280;64776;42.636;24.358;2022-12-11T09:04:39;88425.59;;;11.97;76.32
76074;BME280;64776;42.636;24.358;2022-12-11T09:07:40;88429.66;;;12.11;75.85
76074;BME280;64776;42.636;24.358;2022-12-11T09:10:40;88437.78;;;12.06;74.96
76074;BME280;64776;42.636;24.358;2022-12-11T09:13:42;88427.75;;;12.19;76.29
76074;BME280;64776;42.636;24.358;2022-12-11T09:16:43;88422.22;;;12.17;74.13
76074;BME280;64776;42.636;24.358;2022-12-11T09:19:45;88421.16;;;12.20;74.27
76074;BME280;64776;42.636;24.358;2022-12-11T09:22:46;88423.31;;;12.22;74.15
76074;BME280;64776;42.636;24.358;2022-12-11T09:25:47;88418.22;;;12.32;74.36
76074;BME280;64776;42.636;24.358;2022-12-11T09:28:48;88405.59;;;12.32;74.03
76074;BME280;64776;42.636;24.358;2022-12-11T09:31:49;88402.72;;;12.30;71.88
76074;BME280;64776;42.636;24.358;2022-12-11T09:34:51;88412.88;;;12.32;72.54
76074;BME280;64776;42.636;24.358;2022-12-11T09:37:52;88409.09;;;12.27;72.98
76074;BME280;64776;42.636;24.358;2022-12-11T09:40:53;88409.28;;;12.29;72.21
76074;BME280;64776;42.636;24.358;2022-12-11T09:44:00;88406.28;;;12.33;71.71
76074;BME280;64776;42.636;24.358;2022-12-11T09:47:02;88402.03;;;12.37;70.57
76074;BME280;64776;42.636;24.358;2022-12-11T09:50:12;88396.69;;;12.37;71.19
76074;BME280;64776;42.636;24.358;2022-12-11T09:53:19;88398.44;;;12.35;70.77
76074;BME280;64776;42.636;24.358;2022-12-11T09:56:26;88398.19;;;12.46;71.06
76074;BME280;64776;42.636;24.358;2022-12-11T09:59:36;88384.00;;;12.58;70.73
76074;BME280;64776;42.636;24.358;2022-12-11T10:02:48;88377.31;;;12.72;71.47
76074;BME280;64776;42.636;24.358;2022-12-11T10:06:01;88365.63;;;12.90;70.89
76074;BME280;64776;42.636;24.358;2022-12-11T10:09:12;88380.22;;;13.18;70.54
76074;BME280;64776;42.636;24.358;2022-12-11T10:12:28;88379.22;;;13.36;69.84
76074;BME280;64776;42.636;24.358;2022-12-11T10:15:38;88382.47;;;13.42;67.35
76074;BME280;64776;42.636;24.358;2022-12-11T10:18:40;88374.78;;;13.46;69.47
76074;BME280;64776;42.636;24.358;2022-12-11T10:21:43;88373.41;;;13.60;67.93
76074;BME280;64776;42.636;24.358;2022-12-11T10:24:50;88363.81;;;13.72;67.52
76074;BME280;64776;42.636;24.358;2022-12-11T10:27:53;88373.44;;;13.75;67.63
76074;BME280;64776;42.636;24.358;2022-12-11T10:30:59;88372.53;;;13.65;66.18
76074;BME280;64776;42.636;24.358;2022-12-11T10:34:07;88368.00;;;13.37;66.75
76074;BME280;64776;42.636;24.358;2022-12-11T10:37:13;88368.66;;;13.23;67.59
76074;BME280;64776;42.636;24.358;2022-12-11T10:40:15;88361.34;;;12.87;68.00
76074;BME280;64776;42.636;24.358;2022-12-11T10:43:16;88357.09;;;12.92;68.64
76074;BME280;64776;42.636;24.358;2022-12-11T10:46:19;88349.56;;;12.90;68.17
76074;BME280;64776;42.636;24.358;2022-12-11T10:49:23;88343.63;;;13.13;68.59
76074;BME280;64776;42.636;24.358;2022-12-11T10:52:28;88340.44;;;13.29;67.65
76074;BME280;64776;42.636;24.358;2022-12-11T10:55:37;88328.38;;;13.51;67.05
76074;BME280;64776;42.636;24.358;2022-12-11T10:58:48;88324.44;;;13.52;67.20
76074;BME280;64776;42.636;24.358;2022-12-11T11:01:49;88317.31;;;13.54;65.73
76074;BME280;64776;42.636;24.358;2022-12-11T11:04:51;88315.16;;;13.53;66.88
76074;BME280;64776;42.636;24.358;2022-12-11T11:08:12;88301.03;;;13.45;66.66
76074;BME280;64776;42.636;24.358;2022-12-11T11:11:23;88300.44;;;13.16;66.60
76074;BME280;64776;42.636;24.358;2022-12-11T11:14:24;88290.81;;;13.21;65.85
76074;BME280;64776;42.636;24.358;2022-12-11T11:17:25;88295.88;;;13.47;66.08
76074;BME280;64776;42.636;24.358;2022-12-11T11:20:28;88285.00;;;13.67;64.94
76074;BME280;64776;42.636;24.358;2022-12-11T11:23:31;88279.47;;;13.88;64.20
76074;BME280;64776;42.636;24.358;2022-12-11T11:26:34;88286.78;;;13.95;63.76
76074;BME280;64776;42.636;24.358;2022-12-11T11:29:34;88292.69;;;13.78;64.21
76074;BME280;64776;42.636;24.358;2022-12-11T11:32:37;88297.69;;;13.82;64.56
76074;BME280;64776;42.636;24.358;2022-12-11T11:35:38;88296.63;;;13.93;64.45
76074;BME280;64776;42.636;24.358;2022-12-11T11:38:43;88292.31;;;13.89;64.42
76074;BME280;64776;42.636;24.358;2022-12-11T11:41:51;88295.91;;;13.69;65.45
76074;BME280;64776;42.636;24.358;2022-12-11T11:44:59;88296.63;;;13.70;65.49
76074;BME280;64776;42.636;24.358;2022-12-11T11:48:12;88290.53;;;13.92;65.71
76074;BME280;64776;42.636;24.358;2022-12-11T11:51:15;88292.31;;;13.82;63.84
76074;BME280;64776;42.636;24.358;2022-12-11T11:54:28;88283.38;;;13.87;64.51
76074;BME280;64776;42.636;24.358;2022-12-11T11:57:34;88291.25;;;13.85;65.55
76074;BME280;64776;42.636;24.358;2022-12-11T12:00:37;88291.78;;;13.76;64.92
76074;BME280;64776;42.636;24.358;2022-12-11T12:03:38;88301.59;;;13.51;64.90
76074;BME280;64776;42.636;24.358;2022-12-11T12:06:49;88293.53;;;13.43;66.14
76074;BME280;64776;42.636;24.358;2022-12-11T12:10:01;88292.09;;;13.50;65.42
76074;BME280;64776;42.636;24.358;2022-12-11T12:13:06;88292.28;;;13.37;65.56
76074;BME280;64776;42.636;24.358;2022-12-11T12:16:19;88285.09;;;13.32;66.22
76074;BME280;64776;42.636;24.358;2022-12-11T12:19:35;88289.78;;;13.31;66.36
76074;BME280;64776;42.636;24.358;2022-12-11T12:23:08;88288.31;;;13.23;65.65
76074;BME280;64776;42.636;24.358;2022-12-11T12:26:22;88282.59;;;13.19;66.73
76074;BME280;64776;42.636;24.358;2022-12-11T12:29:32;88283.28;;;13.19;68.00
76074;BME280;64776;42.636;24.358;2022-12-11T12:32:43;88268.94;;;13.01;66.61
76074;BME280;64776;42.636;24.358;2022-12-11T12:35:54;88273.97;;;13.05;68.12
76074;BME280;64776;42.636;24.358;2022-12-11T12:39:00;88272.84;;;13.00;67.28
76074;BME280;64776;42.636;24.358;2022-12-11T12:42:04;88277.09;;;12.88;68.54
76074;BME280;64776;42.636;24.358;2022-12-11T12:45:15;88274.56;;;12.75;68.66
76074;BME280;64776;42.636;24.358;2022-12-11T12:48:17;88275.09;;;12.74;68.03
76074;BME280;64776;42.636;24.358;2022-12-11T12:51:18;88280.25;;;12.72;68.54
76074;BME280;64776;42.636;24.358;2022-12-11T12:54:20;88277.56;;;12.64;68.12
76074;BME280;64776;42.636;24.358;2022-12-11T12:57:22;88267.03;;;12.66;68.49
76074;BME280;64776;42.636;24.358;2022-12-11T13:00:29;88264.19;;;12.64;68.91
76074;BME280;64776;42.636;24.358;2022-12-11T13:03:31;88264.53;;;12.61;68.43
76074;BME280;64776;42.636;24.358;2022-12-11T13:06:35;88261.31;;;12.62;68.62
76074;BME280;64776;42.636;24.358;2022-12-11T13:09:37;88261.66;;;12.59;68.64
76074;BME280;64776;42.636;24.358;2022-12-11T13:12:44;88253.09;;;12.60;68.39
76074;BME280;64776;42.636;24.358;2022-12-11T13:15:45;88265.53;;;12.50;68.34
76074;BME280;64776;42.636;24.358;2022-12-11T13:18:47;88263.72;;;12.45;68.50
76074;BME280;64776;42.636;24.358;2022-12-11T13:21:54;88266.03;;;12.41;68.48
76074;BME280;64776;42.636;24.358;2022-12-11T13:24:58;88272.94;;;12.37;68.71
76074;BME280;64776;42.636;24.358;2022-12-11T13:28:20;88270.06;;;12.27;68.98
76074;BME280;64776;42.636;24.358;2022-12-11T13:31:32;88273.97;;;12.26;69.69
76074;BME280;64776;42.636;24.358;2022-12-11T13:34:35;88268.03;;;12.20;69.16
76074;BME280;64776;42.636;24.358;2022-12-11T13:37:39;88262.84;;;12.14;69.94
76074;BME280;64776;42.636;24.358;2022-12-11T13:40:42;88270.72;;;12.20;69.50
76074;BME280;64776;42.636;24.358;2022-12-11T13:43:46;88269.28;;;12.19;70.11
76074;BME280;64776;42.636;24.358;2022-12-11T13:46:49;88267.84;;;12.18;70.95
76074;BME280;64776;42.636;24.358;2022-12-11T13:49:53;88272.72;;;12.27;71.86
76074;BME280;64776;42.636;24.358;2022-12-11T13:52:56;88276.06;;;12.20;72.59
76074;BME280;64776;42.636;24.358;2022-12-11T13:55:58;88280.16;;;12.13;72.90
76074;BME280;64776;42.636;24.358;2022-12-11T13:59:00;88278.16;;;12.14;72.95
76074;BME280;64776;42.636;24.358;2022-12-11T14:02:13;88282.38;;;12.02;73.35
76074;BME280;64776;42.636;24.358;2022-12-11T14:05:14;88281.59;;;11.94;73.39
76074;BME280;64776;42.636;24.358;2022-12-11T14:08:20;88280.38;;;11.95;73.87
76074;BME280;64776;42.636;24.358;2022-12-11T14:11:24;88284.66;;;11.98;74.42
76074;BME280;64776;42.636;24.358;2022-12-11T14:14:34;88285.16;;;11.89;75.08
76074;BME280;64776;42.636;24.358;2022-12-11T14:17:41;88281.91;;;11.83;75.67
76074;BME280;64776;42.636;24.358;2022-12-11T14:20:42;88279.53;;;11.79;76.13
76074;BME280;64776;42.636;24.358;2022-12-11T14:23:50;88282.16;;;11.72;76.68
76074;BME280;64776;42.636;24.358;2022-12-11T14:26:52;88276.22;;;11.66;77.58
76074;BME280;64776;42.636;24.358;2022-12-11T14:29:55;88282.31;;;11.66;77.57
76074;BME280;64776;42.636;24.358;2022-12-11T14:32:57;88276.47;;;11.55;78.80
76074;BME280;64776;42.636;24.358;2022-12-11T14:36:00;88272.56;;;11.56;78.82
76074;BME280;64776;42.636;24.358;2022-12-11T14:39:03;88271.66;;;11.53;78.71
76074;BME280;64776;42.636;24.358;2022-12-11T14:42:10;88268.47;;;11.55;78.96
76074;BME280;64776;42.636;24.358;2022-12-11T14:45:18;88277.91;;;11.56;79.08
76074;BME280;64776;42.636;24.358;2022-12-11T14:48:24;88280.19;;;11.52;79.31
76074;BME280;64776;42.636;24.358;2022-12-11T14:51:29;88282.34;;;11.32;80.19
76074;BME280;64776;42.636;24.358;2022-12-11T14:54:40;88285.53;;;11.31;80.48
76074;BME280;64776;42.636;24.358;2022-12-11T14:57:52;88288.91;;;11.31;80.49
76074;BME280;64776;42.636;24.358;2022-12-11T15:01:03;88298.69;;;11.29;81.17
76074;BME280;64776;42.636;24.358;2022-12-11T15:04:06;88290.97;;;11.25;81.43
76074;BME280;64776;42.636;24.358;2022-12-11T15:07:18;88302.31;;;11.18;80.88
76074;BME280;64776;42.636;24.358;2022-12-11T15:10:22;88301.75;;;10.99;81.24
76074;BME280;64776;42.636;24.358;2022-12-11T15:13:23;88302.38;;;10.92;80.69
76074;BME280;64776;42.636;24.358;2022-12-11T15:16:27;88302.84;;;10.83;80.82
76074;BME280;64776;42.636;24.358;2022-12-11T15:19:32;88310.03;;;10.75;81.46
76074;BME280;64776;42.636;24.358;2022-12-11T15:22:35;88311.06;;;10.72;81.33
76074;BME280;64776;42.636;24.358;2022-12-11T15:25:36;88316.59;;;10.74;81.87
76074;BME280;64776;42.636;24.358;2022-12-11T15:28:37;88326.44;;;10.79;81.88
76074;BME280;64776;42.636;24.358;2022-12-11T15:31:40;88321.50;;;10.83;81.78
76074;BME280;64776;42.636;24.358;2022-12-11T15:34:44;88327.84;;;10.80;81.89
76074;BME280;64776;42.636;24.358;2022-12-11T15:37:51;88327.75;;;10.86;81.58
76074;BME280;64776;42.636;24.358;2022-12-11T15:40:52;88321.75;;;10.59;82.02
76074;BME280;64776;42.636;24.358;2022-12-11T15:43:54;88325.66;;;10.45;83.25
76074;BME280;64776;42.636;24.358;2022-12-11T15:46:57;88326.09;;;10.36;83.16
76074;BME280;64776;42.636;24.358;2022-12-11T15:50:00;88336.28;;;9.93;81.92
76074;BME280;64776;42.636;24.358;2022-12-11T15:53:01;88345.19;;;9.50;83.17
76074;BME280;64776;42.636;24.358;2022-12-11T15:56:02;88348.44;;;9.12;84.05
76074;BME280;64776;42.636;24.358;2022-12-11T15:59:04;88359.81;;;8.93;83.46
76074;BME280;64776;42.636;24.358;2022-12-11T16:02:10;88359.22;;;9.00;83.49